This is the latest recevied weather packets stored in our database for station/object KC3VCX. If no packets are shown the sender has not sent any weather packets the latest 10 day(s).
| Time | Temp. | Humidity | Pressure | Rain* | Wind** | Luminosity | Snow |
|---|---|---|---|---|---|---|---|
| 1777841303 | 14.44° C | 40% | 1016 hPa | 0 mm | - | 379 W/m² | - |
| 1777841000 | 13.89° C | 40% | 1016.2 hPa | 0 mm | - | 609 W/m² | - |
| 1777840697 | 13.89° C | 40% | 1016.1 hPa | 0 mm | - | 192 W/m² | - |
| 1777840395 | 13.89° C | 41% | 1016.1 hPa | 0 mm | - | 213 W/m² | - |
| 1777840091 | 14.44° C | 39% | 1016.2 hPa | 0 mm | - | 209 W/m² | - |
| 1777839790 | 13.89° C | 42% | 1016 hPa | 0 mm | - | 390 W/m² | - |
| 1777839488 | 13.89° C | 40% | 1016.1 hPa | 0 mm | - | 632 W/m² | - |
| 1777839184 | 13.33° C | 41% | 1016.4 hPa | 0 mm | - | 672 W/m² | - |
| 1777838882 | 13.33° C | 42% | 1016.3 hPa | 0 mm | - | 225 W/m² | - |
| 1777838577 | 13.33° C | 40% | 1016.1 hPa | 0 mm | - | 744 W/m² | - |
| 1777838275 | 13.33° C | 41% | 1016.3 hPa | 0 mm | - | 435 W/m² | - |
| 1777837972 | 13.89° C | 39% | 1016.5 hPa | 0 mm | - | 200 W/m² | - |
| 1777837669 | 13.33° C | 41% | 1016.6 hPa | 0 mm | - | 264 W/m² | - |
| 1777837364 | 12.78° C | 40% | 1016.5 hPa | 0 mm | - | 146 W/m² | - |
| 1777837061 | 13.33° C | 39% | 1017 hPa | 0 mm | - | 272 W/m² | - |
| 1777836757 | 14.44° C | 38% | 1016.9 hPa | 0 mm | - | 203 W/m² | - |
| 1777836452 | 13.89° C | 39% | 1017 hPa | 0 mm | - | 769 W/m² | - |
| 1777836148 | 13.33° C | 40% | 1017.1 hPa | 0 mm | - | 267 W/m² | - |
| 1777835845 | 13.89° C | 41% | 1016.9 hPa | 0 mm | - | 838 W/m² | - |
| 1777835542 | 13.33° C | 43% | 1017.1 hPa | 0 mm | - | 788 W/m² | - |
| 1777835239 | 13.33° C | 41% | 1017.2 hPa | 0 mm | - | 824 W/m² | - |
| 1777834935 | 13.33° C | 42% | 1017.1 hPa | 0 mm | - | 717 W/m² | - |
| 1777834633 | 13.33° C | 41% | 1017.3 hPa | 0 mm | - | 266 W/m² | - |
| 1777834328 | 13.33° C | 41% | 1017.3 hPa | 0 mm | - | 302 W/m² | - |
| 1777834023 | 12.78° C | 43% | 1017.3 hPa | 0 mm | - | 860 W/m² | - |
* Rain latest hour (hover to see other rain measurements)
** Current wind speed in m/s (hover to see current wind gust speed)